North Little Rock, Arkansas
Current Conditions -  °F | °C
As of 11:53 AM on Saturday 25 Oct 2014 (Local Time) from KLIT Reporting Station
Clear Clear  
Wind Chill: 80°   Ceiling: Unl
Heat Index: 81°   Visibility: 10mi
Dew Point: 60°   Wind: 8mph
Humidity: 50%   Direction: 250°WSW
Pressure: 30.1"   Gusts: NA
Location:  34.76°N, 92.27°W
Report Text: KLIT 251653Z 25007KT 10SM CLR 27/16 A3010 RMK AO2 SLP194 T02670156
Loading
Personal Weather Stations






























Interactive Weather Map
Tropical Storm Tracking
New forecast layout! Learn more

10-Day Weather Forecast

Advertisements
Track Severe Weather on mobile